Time;durP1;ratioP1;P1;durP2;ratioP2;P2;SDS_P1;SDS_P2;PMS_P1;PMS_P2;Temp;Humidity;BMP_temperature;BMP_pressure;BME280_temperature;BME280_humidity;BME280_pressure;Samples;Min_cycle;Max_cycle;Signal;HPM_P1;HPM_P2
2024/02/11 00:01:08;;;;;;;1.80;1.50;;;11.50;77.40;;;;;;5078802;28;20040;-70
2024/02/11 00:03:54;;;;;;;3.13;1.40;;;11.50;77.40;;;;;;5072138;28;20132;-70
2024/02/11 00:06:21;;;;;;;2.90;1.85;;;11.50;77.70;;;;;;5063942;28;20397;-70
2024/02/11 00:08:49;;;;;;;;;;;11.50;77.50;;;;;;5080714;28;20125;-70
2024/02/11 00:11:15;;;;;;;1.80;1.02;;;11.50;77.40;;;;;;5076096;28;20002;-70
2024/02/11 00:13:42;;;;;;;1.05;0.73;;;11.50;77.40;;;;;;5083954;28;20507;-70
2024/02/11 00:16:10;;;;;;;7.05;1.52;;;11.50;77.40;;;;;;5077797;28;20040;-70
2024/02/11 00:18:37;;;;;;;1.10;0.73;;;11.50;77.30;;;;;;5079248;28;20024;-70
2024/02/11 00:21:05;;;;;;;3.95;1.25;;;11.50;77.20;;;;;;5072500;28;20446;-70
2024/02/11 00:23:34;;;;;;;0.73;0.60;;;11.50;77.40;;;;;;5080425;28;20058;-71
2024/02/11 00:26:01;;;;;;;1.10;0.80;;;11.50;77.50;;;;;;5083087;28;25400;-70
2024/02/11 00:28:27;;;;;;;;;;;11.60;77.40;;;;;;5079961;28;20028;-70
2024/02/11 00:30:53;;;;;;;1.35;1.05;;;11.50;77.70;;;;;;5086221;28;20011;-70
2024/02/11 00:33:20;;;;;;;;;;;11.50;77.60;;;;;;5080646;28;20040;-70
2024/02/11 00:35:47;;;;;;;4.30;1.73;;;11.50;77.10;;;;;;5081554;28;19927;-71
2024/02/11 00:38:15;;;;;;;0.82;0.60;;;11.40;77.50;;;;;;5077289;28;20027;-70
2024/02/11 00:40:42;;;;;;;2.53;1.75;;;11.40;77.70;;;;;;5076448;28;20040;-70
2024/02/11 00:43:08;;;;;;;0.73;0.45;;;11.40;77.90;;;;;;5081056;28;20252;-70
2024/02/11 00:45:35;;;;;;;2.63;1.00;;;11.40;77.40;;;;;;5062208;28;20033;-70
2024/02/11 00:48:03;;;;;;;0.30;0.25;;;11.40;77.80;;;;;;5078965;28;20051;-70
2024/02/11 00:50:33;;;;;;;2.42;1.13;;;11.40;77.90;;;;;;5080644;28;20036;-70
2024/02/11 00:53:05;;;;;;;0.52;0.52;;;11.40;77.80;;;;;;5069059;28;20044;-70
2024/02/11 00:55:35;;;;;;;2.72;1.00;;;11.40;77.60;;;;;;5072875;28;20040;-70
2024/02/11 00:58:05;;;;;;;0.85;0.40;;;11.50;77.50;;;;;;5076141;28;20119;-71
2024/02/11 01:00:33;;;;;;;1.42;0.55;;;11.50;77.50;;;;;;5082876;28;20036;-71
2024/02/11 01:02:59;;;;;;;4.50;0.85;;;11.50;76.80;;;;;;5091530;28;20060;-70
2024/02/11 01:05:25;;;;;;;;;;;11.50;77.40;;;;;;5089155;28;20056;-70
2024/02/11 01:07:51;;;;;;;0.50;0.50;;;11.50;77.30;;;;;;5086942;28;19995;-71
2024/02/11 01:10:17;;;;;;;1.33;0.80;;;11.50;77.30;;;;;;5085760;28;20431;-70
2024/02/11 01:12:45;;;;;;;1.60;0.90;;;11.50;76.70;;;;;;5076145;28;20040;-71
2024/02/11 01:15:16;;;;;;;2.20;0.88;;;11.40;77.10;;;;;;5071734;28;20517;-71
2024/02/11 01:17:43;;;;;;;1.90;1.13;;;11.50;77.20;;;;;;5090340;28;20093;-71
2024/02/11 01:20:16;;;;;;;1.48;1.15;;;11.50;77.10;;;;;;5079181;28;20035;-70
2024/02/11 01:22:44;;;;;;;1.00;0.90;;;11.50;77.00;;;;;;5086743;28;20056;-70
2024/02/11 01:25:11;;;;;;;1.65;0.82;;;11.50;76.80;;;;;;5061730;28;20028;-70
2024/02/11 01:27:37;;;;;;;3.03;0.90;;;11.50;76.30;;;;;;5095573;28;20504;-71
2024/02/11 01:30:08;;;;;;;0.98;0.68;;;11.50;77.00;;;;;;5074306;28;20107;-71
2024/02/11 01:32:34;;;;;;;3.65;1.58;;;11.50;77.00;;;;;;5093653;28;20028;-70
2024/02/11 01:35:00;;;;;;;0.95;0.43;;;11.50;77.10;;;;;;5092488;28;20082;-71
2024/02/11 01:37:26;;;;;;;4.65;2.67;;;11.50;77.10;;;;;;5093840;28;20082;-70
2024/02/11 01:39:52;;;;;;;4.55;2.05;;;11.50;77.70;;;;;;5093326;28;20101;-70
2024/02/11 01:42:19;;;;;;;1.45;0.90;;;11.50;77.10;;;;;;5083599;28;20061;-70
2024/02/11 01:44:45;;;;;;;2.08;1.02;;;11.50;77.40;;;;;;5077493;28;20087;-70
2024/02/11 01:47:11;;;;;;;4.35;0.90;;;11.50;77.50;;;;;;5073686;28;20098;-70
2024/02/11 01:49:38;;;;;;;0.95;0.35;;;11.50;77.50;;;;;;5076818;28;20037;-70
2024/02/11 01:52:05;;;;;;;1.90;0.75;;;11.50;77.40;;;;;;5082692;28;20059;-71
2024/02/11 01:54:32;;;;;;;1.50;0.85;;;11.50;77.50;;;;;;5073325;28;20040;-70
2024/02/11 01:56:58;;;;;;;1.45;1.10;;;11.50;77.70;;;;;;5073834;28;20335;-70
2024/02/11 01:59:28;;;;;;;2.60;2.03;;;11.50;78.00;;;;;;5077285;28;20033;-70
2024/02/11 02:01:55;;;;;;;2.95;0.75;;;11.40;78.00;;;;;;5071753;28;20373;-70
2024/02/11 02:04:22;;;;;;;1.55;0.85;;;11.40;77.40;;;;;;5074288;28;20098;-70
2024/02/11 02:06:50;;;;;;;1.17;0.38;;;11.40;77.80;;;;;;5074105;28;20094;-70
2024/02/11 02:09:18;;;;;;;2.33;0.90;;;11.40;78.00;;;;;;5084031;28;20111;-70
2024/02/11 02:11:44;;;;;;;2.47;2.28;;;11.40;77.80;;;;;;5079505;28;20741;-70
2024/02/11 02:14:10;;;;;;;2.33;1.35;;;11.40;78.00;;;;;;5073175;28;20032;-70
2024/02/11 02:16:36;;;;;;;1.65;1.35;;;11.40;78.40;;;;;;5087744;28;20044;-70
2024/02/11 02:19:03;;;;;;;2.30;0.77;;;11.40;78.30;;;;;;5091997;28;20036;-70
2024/02/11 02:21:29;;;;;;;2.95;0.47;;;11.40;78.10;;;;;;5090173;28;20074;-70
2024/02/11 02:23:56;;;;;;;3.13;0.95;;;11.40;78.20;;;;;;5081804;28;20032;-71
2024/02/11 02:26:22;;;;;;;0.95;0.63;;;11.40;78.30;;;;;;5082909;28;20033;-70
2024/02/11 02:28:48;;;;;;;1.02;0.70;;;11.40;78.30;;;;;;5087358;28;20454;-70
2024/02/11 02:31:14;;;;;;;3.78;1.58;;;11.40;78.30;;;;;;5093921;28;20105;-70
2024/02/11 02:33:40;;;;;;;0.70;0.43;;;11.40;78.30;;;;;;5093082;28;20024;-70
2024/02/11 02:36:06;;;;;;;0.22;0.22;;;11.30;78.30;;;;;;5094187;28;20062;-70
2024/02/11 02:38:32;;;;;;;1.80;0.98;;;11.30;78.40;;;;;;5093680;28;20396;-70
2024/02/11 02:40:58;;;;;;;;;;;11.40;78.30;;;;;;5094049;28;20071;-70
2024/02/11 02:43:26;;;;;;;0.68;0.60;;;11.30;78.30;;;;;;5094320;28;20360;-70
2024/02/11 02:45:52;;;;;;;0.63;0.28;;;11.30;78.30;;;;;;5076037;28;20540;-69
2024/02/11 02:48:18;;;;;;;2.13;0.95;;;11.30;78.40;;;;;;5094299;28;20044;-70
2024/02/11 02:50:44;;;;;;;1.02;0.50;;;11.30;78.50;;;;;;5093365;28;20048;-70
2024/02/11 02:53:11;;;;;;;1.83;0.93;;;11.30;78.50;;;;;;5094162;28;20039;-70
2024/02/11 02:55:38;;;;;;;1.80;1.33;;;11.30;78.60;;;;;;5092699;28;20032;-70
2024/02/11 02:58:08;;;;;;;1.65;1.20;;;11.30;78.70;;;;;;5081592;28;20029;-69
2024/02/11 03:00:34;;;;;;;1.10;0.60;;;11.30;78.90;;;;;;5055373;28;20532;-70
2024/02/11 03:03:03;;;;;;;0.25;0.22;;;11.30;79.00;;;;;;5072400;28;20082;-70
2024/02/11 03:05:29;;;;;;;2.80;0.70;;;11.20;79.00;;;;;;5072790;28;20029;-70
2024/02/11 03:07:56;;;;;;;1.90;0.60;;;11.20;78.90;;;;;;5088311;28;20036;-70
2024/02/11 03:10:23;;;;;;;1.35;0.90;;;11.20;80.00;;;;;;5091703;28;20039;-70
2024/02/11 03:12:49;;;;;;;3.78;0.63;;;11.20;79.40;;;;;;5093476;28;20063;-70
2024/02/11 03:15:18;;;;;;;1.75;0.75;;;11.20;79.40;;;;;;5093441;28;20043;-70
2024/02/11 03:17:44;;;;;;;1.40;0.85;;;11.20;79.30;;;;;;5092646;28;20048;-70
2024/02/11 03:20:14;;;;;;;0.15;0.15;;;11.20;79.40;;;;;;5092414;28;20423;-70
2024/02/11 03:22:41;;;;;;;0.20;0.20;;;11.20;78.80;;;;;;5092913;28;20040;-70
2024/02/11 03:25:09;;;;;;;0.60;0.60;;;11.20;79.20;;;;;;5091714;28;20028;-70
2024/02/11 03:27:41;;;;;;;0.28;0.28;;;11.20;79.00;;;;;;5091547;28;20036;-70
2024/02/11 03:30:08;;;;;;;0.30;0.30;;;11.20;79.20;;;;;;5091576;28;20460;-70
2024/02/11 03:32:35;;;;;;;1.08;0.75;;;11.20;79.30;;;;;;5093167;28;20118;-70
2024/02/11 03:35:01;;;;;;;1.38;0.88;;;11.20;79.40;;;;;;5091775;28;20084;-70
2024/02/11 03:37:31;;;;;;;;;;;11.20;79.50;;;;;;5092152;28;20401;-70
2024/02/11 03:39:58;;;;;;;0.68;0.50;;;11.20;79.50;;;;;;5093136;28;20424;-70
2024/02/11 03:42:24;;;;;;;;;;;11.10;79.40;;;;;;5092926;28;20479;-70
2024/02/11 03:44:50;;;;;;;1.05;0.63;;;11.20;79.40;;;;;;5091564;28;19912;-71
2024/02/11 03:47:16;;;;;;;0.20;0.20;;;11.20;79.40;;;;;;5092501;28;20715;-69
2024/02/11 03:49:42;;;;;;;0.47;0.28;;;11.20;79.50;;;;;;5092443;28;20044;-70
2024/02/11 03:52:08;;;;;;;0.30;0.22;;;11.10;79.70;;;;;;5090386;28;20048;-70
2024/02/11 03:54:38;;;;;;;1.80;1.15;;;11.20;79.70;;;;;;5092798;28;20028;-70
2024/02/11 03:57:05;;;;;;;4.55;1.45;;;11.20;79.50;;;;;;5091579;28;20396;-70
2024/02/11 03:59:31;;;;;;;0.13;0.13;;;11.20;79.70;;;;;;5091382;28;20055;-70
2024/02/11 04:02:01;;;;;;;1.73;0.70;;;11.20;79.70;;;;;;5091671;28;20501;-70
2024/02/11 04:04:27;;;;;;;1.88;0.85;;;11.20;79.70;;;;;;5092344;28;20028;-70
2024/02/11 04:06:54;;;;;;;;;;;11.10;79.70;;;;;;5092751;28;20378;-70
2024/02/11 04:09:28;;;;;;;1.55;0.47;;;11.20;79.70;;;;;;5092222;28;20292;-70
2024/02/11 04:11:58;;;;;;;0.90;0.90;;;11.10;79.50;;;;;;5090289;28;20047;-70
2024/02/11 04:14:24;;;;;;;1.02;0.85;;;11.10;79.80;;;;;;5091211;28;20020;-70
2024/02/11 04:16:55;;;;;;;2.17;1.30;;;11.10;80.00;;;;;;5090802;28;20096;-70
2024/02/11 04:19:22;;;;;;;0.88;0.70;;;11.10;80.10;;;;;;5091978;28;20080;-70
2024/02/11 04:21:49;;;;;;;2.50;1.33;;;11.10;79.60;;;;;;5091229;28;20036;-70
2024/02/11 04:24:16;;;;;;;2.35;0.60;;;11.10;80.10;;;;;;5091989;28;20048;-70
2024/02/11 04:27:00;;;;;;;;;;;11.10;79.40;;;;;;5092390;28;20044;-70
2024/02/11 04:29:26;;;;;;;0.70;0.50;;;11.10;79.90;;;;;;5090749;28;19943;-70
2024/02/11 04:31:53;;;;;;;0.55;0.47;;;11.10;80.10;;;;;;5091505;28;20036;-70
2024/02/11 04:34:21;;;;;;;0.80;0.20;;;11.00;80.00;;;;;;5090781;28;20024;-70
2024/02/11 04:36:48;;;;;;;1.77;0.95;;;11.00;80.10;;;;;;5091713;28;20028;-70
2024/02/11 04:39:15;;;;;;;0.20;0.20;;;11.00;80.20;;;;;;5090761;28;20118;-70
2024/02/11 04:41:41;;;;;;;1.73;0.90;;;11.10;80.00;;;;;;5072743;28;20481;-70
2024/02/11 04:44:07;;;;;;;0.52;0.30;;;11.10;80.00;;;;;;5090515;28;20028;-70
2024/02/11 04:46:34;;;;;;;0.85;0.68;;;11.10;79.90;;;;;;5090242;28;20054;-70
2024/02/11 04:49:01;;;;;;;0.65;0.43;;;11.10;79.80;;;;;;5090089;28;20020;-70
2024/02/11 04:51:28;;;;;;;0.30;0.30;;;11.10;80.90;;;;;;5072859;28;20047;-70
2024/02/11 04:54:14;;;;;;;1.75;0.73;;;11.10;80.00;;;;;;5091477;28;20035;-70
2024/02/11 04:56:41;;;;;;;1.35;0.88;;;11.10;80.10;;;;;;5091168;28;20111;-70
2024/02/11 04:59:07;;;;;;;0.40;0.40;;;11.10;79.90;;;;;;5089888;28;20028;-70
2024/02/11 05:01:34;;;;;;;4.90;2.70;;;11.10;80.00;;;;;;5089036;28;20036;-70
2024/02/11 05:04:01;;;;;;;1.00;0.55;;;11.10;80.10;;;;;;5091566;28;20050;-70
2024/02/11 05:06:27;;;;;;;0.63;0.40;;;11.10;80.20;;;;;;5090259;28;20058;-70
2024/02/11 05:08:54;;;;;;;;;;;11.10;80.20;;;;;;5090558;28;20073;-70
2024/02/11 05:11:21;;;;;;;0.40;0.13;;;11.10;80.00;;;;;;5089599;28;20339;-70
2024/02/11 05:13:47;;;;;;;;;;;11.00;79.60;;;;;;5090889;28;20406;-70
2024/02/11 05:16:16;;;;;;;1.38;0.88;;;11.00;80.00;;;;;;5089824;28;19995;-70
2024/02/11 05:18:42;;;;;;;0.38;0.20;;;11.00;80.00;;;;;;5089743;28;20101;-70
2024/02/11 05:21:09;;;;;;;1.17;0.55;;;11.00;80.20;;;;;;5089256;28;20110;-70
2024/02/11 05:23:37;;;;;;;0.60;0.40;;;11.00;79.40;;;;;;5091465;28;20032;-70
2024/02/11 05:26:05;;;;;;;0.82;0.38;;;11.00;79.90;;;;;;5090874;28;20028;-70
2024/02/11 05:28:34;;;;;;;1.17;0.93;;;11.00;80.80;;;;;;5091092;28;20393;-70
2024/02/11 05:31:01;;;;;;;6.22;1.95;;;11.00;79.90;;;;;;5072871;28;20043;-70
2024/02/11 05:33:27;;;;;;;0.40;0.20;;;11.00;80.20;;;;;;5089716;28;20470;-70
2024/02/11 05:35:53;;;;;;;;;;;11.00;80.10;;;;;;5091749;28;20569;-70
2024/02/11 05:38:24;;;;;;;0.35;0.30;;;11.00;80.00;;;;;;5073026;28;20415;-69
2024/02/11 05:40:56;;;;;;;1.27;0.52;;;11.00;79.90;;;;;;5089370;28;20399;-70
2024/02/11 05:43:22;;;;;;;0.60;0.40;;;11.00;80.00;;;;;;5089723;28;20509;-70
2024/02/11 05:45:49;;;;;;;0.93;0.60;;;11.00;80.00;;;;;;5090868;28;20036;-70
2024/02/11 05:48:15;;;;;;;2.83;1.77;;;11.00;80.00;;;;;;5091170;28;20055;-70
2024/02/11 05:50:41;;;;;;;0.57;0.40;;;11.00;79.90;;;;;;5090274;28;20032;-70
2024/02/11 05:53:08;;;;;;;;;;;11.00;79.40;;;;;;5090334;28;20119;-70
2024/02/11 05:55:35;;;;;;;1.23;1.13;;;10.90;80.30;;;;;;5089434;28;19995;-70
2024/02/11 05:58:03;;;;;;;0.88;0.52;;;10.90;80.00;;;;;;5089319;28;20066;-70
2024/02/11 06:00:31;;;;;;;2.60;0.57;;;10.90;80.00;;;;;;5072898;28;20680;-70
2024/02/11 06:02:58;;;;;;;1.65;0.80;;;10.90;80.20;;;;;;5069825;28;20071;-70
2024/02/11 06:05:25;;;;;;;0.30;0.30;;;11.00;79.70;;;;;;5052206;28;20029;-70
2024/02/11 06:07:54;;;;;;;0.57;0.40;;;11.00;79.50;;;;;;5054340;28;20048;-70
2024/02/11 06:10:23;;;;;;;0.95;0.63;;;11.10;79.40;;;;;;5088663;28;20078;-70
2024/02/11 06:12:53;;;;;;;0.90;0.60;;;11.00;79.30;;;;;;5091605;28;20040;-70
2024/02/11 06:15:20;;;;;;;0.85;0.40;;;11.00;78.90;;;;;;5092909;28;20120;-70
2024/02/11 06:18:06;;;;;;;1.05;0.30;;;11.00;79.00;;;;;;5092751;28;20578;-70
2024/02/11 06:20:32;;;;;;;1.38;0.85;;;11.00;79.70;;;;;;5092278;28;20051;-70
2024/02/11 06:22:59;;;;;;;0.32;0.20;;;11.00;79.70;;;;;;5094268;28;20421;-70
2024/02/11 06:25:25;;;;;;;;;;;11.00;79.60;;;;;;5093568;28;20465;-70
2024/02/11 06:27:52;;;;;;;1.30;0.63;;;11.00;79.70;;;;;;5092607;28;19920;-70
2024/02/11 06:30:20;;;;;;;3.10;0.63;;;11.00;79.40;;;;;;5092227;28;20080;-70
2024/02/11 06:32:49;;;;;;;1.42;0.93;;;11.00;79.40;;;;;;5093666;28;20036;-70
2024/02/11 06:35:16;;;;;;;0.75;0.50;;;11.00;79.20;;;;;;5092914;28;20032;-70
2024/02/11 06:37:44;;;;;;;1.60;0.82;;;11.00;79.10;;;;;;5092339;28;20090;-70
2024/02/11 06:40:16;;;;;;;1.00;0.90;;;11.00;78.60;;;;;;5092000;28;20031;-69
2024/02/11 06:42:43;;;;;;;0.55;0.55;;;11.10;79.10;;;;;;5092195;28;20036;-70
2024/02/11 06:45:12;;;;;;;1.10;0.65;;;11.10;79.10;;;;;;5092530;28;20481;-70
2024/02/11 06:47:40;;;;;;;1.58;1.48;;;11.10;78.90;;;;;;5093816;28;20071;-70
2024/02/11 06:50:10;;;;;;;0.75;0.68;;;11.20;78.80;;;;;;5092163;28;20028;-70
2024/02/11 06:52:36;;;;;;;1.25;0.38;;;11.20;78.60;;;;;;5093941;28;20036;-70
2024/02/11 06:55:05;;;;;;;6.22;1.45;;;11.20;78.80;;;;;;5092621;28;20074;-70
2024/02/11 06:57:32;;;;;;;2.78;0.82;;;11.20;78.40;;;;;;5091885;28;20043;-70
2024/02/11 06:59:59;;;;;;;9.43;2.78;;;11.10;78.50;;;;;;5093629;28;20024;-70
2024/02/11 07:02:25;;;;;;;4.20;1.52;;;11.20;79.20;;;;;;5091516;28;20056;-70
2024/02/11 07:04:55;;;;;;;4.97;3.13;;;11.20;79.20;;;;;;5093519;28;20073;-69
2024/02/11 07:07:22;;;;;;;7.07;2.72;;;11.20;79.10;;;;;;5093218;28;20086;-70
2024/02/11 07:09:49;;;;;;;3.00;1.88;;;11.20;78.30;;;;;;5091880;28;20054;-70
2024/02/11 07:12:17;;;;;;;4.72;1.45;;;11.20;78.60;;;;;;5092609;28;20051;-70
2024/02/11 07:14:45;;;;;;;2.50;2.20;;;11.20;78.00;;;;;;5093037;28;20028;-70
2024/02/11 07:17:14;;;;;;;1.10;0.60;;;11.20;78.40;;;;;;5091725;28;20515;-70
2024/02/11 07:19:41;;;;;;;2.53;2.30;;;11.30;78.50;;;;;;5091874;28;20225;-70
2024/02/11 07:22:08;;;;;;;27.75;1.75;;;11.30;78.30;;;;;;5091001;28;20044;-70
2024/02/11 07:24:35;;;;;;;2.70;1.15;;;11.40;78.30;;;;;;5091347;28;20073;-70
2024/02/11 07:27:01;;;;;;;3.40;2.47;;;11.40;78.00;;;;;;5091415;28;20477;-70
2024/02/11 07:29:28;;;;;;;1.75;1.33;;;11.40;78.00;;;;;;5091592;28;20069;-70
2024/02/11 07:34:39;;;;;;;3.63;1.30;;;11.50;77.90;;;;;;5091957;28;20039;-70
2024/02/11 07:37:06;;;;;;;2.13;1.05;;;11.50;77.80;;;;;;5091260;28;20056;-70
2024/02/11 07:39:32;;;;;;;0.30;0.30;;;11.50;77.10;;;;;;5092962;28;20184;-70
2024/02/11 07:41:58;;;;;;;1.25;0.75;;;11.50;77.60;;;;;;5090996;28;20470;-70
2024/02/11 07:44:25;;;;;;;4.93;2.00;;;11.50;77.90;;;;;;5091475;28;20397;-70
2024/02/11 07:46:53;;;;;;;10.40;3.30;;;11.60;77.70;;;;;;5091231;28;20040;-70
2024/02/11 07:49:21;;;;;;;12.70;6.50;;;11.60;77.70;;;;;;5091397;28;20028;-70
2024/02/11 07:51:48;;;;;;;12.27;5.47;;;11.60;77.60;;;;;;5091927;28;20070;-70
2024/02/11 07:54:14;;;;;;;9.15;3.30;;;11.60;77.50;;;;;;5091212;28;20373;-70
2024/02/11 07:56:43;;;;;;;8.85;5.22;;;11.70;77.70;;;;;;5090835;28;20085;-70
2024/02/11 07:59:11;;;;;;;9.25;6.80;;;11.70;77.60;;;;;;5092519;28;20036;-70
2024/02/11 08:01:37;;;;;;;11.52;6.57;;;11.80;77.30;;;;;;5091507;28;20101;-70
2024/02/11 08:04:04;;;;;;;11.38;6.45;;;11.80;77.10;;;;;;5091352;28;20044;-70
2024/02/11 08:06:30;;;;;;;10.38;4.63;;;11.90;77.10;;;;;;5073725;28;20036;-70
2024/02/11 08:08:56;;;;;;;8.30;4.45;;;11.90;77.00;;;;;;5091830;28;20493;-70
2024/02/11 08:11:23;;;;;;;4.25;2.22;;;12.00;76.80;;;;;;5090189;28;20035;-70
2024/02/11 08:13:54;;;;;;;1.23;0.88;;;12.00;76.60;;;;;;5092294;28;20024;-70
2024/02/11 08:16:22;;;;;;;1.70;1.27;;;12.10;76.50;;;;;;5090676;28;20035;-70
2024/02/11 08:18:54;;;;;;;0.70;0.50;;;12.20;76.10;;;;;;5090545;28;20032;-70
2024/02/11 08:21:21;;;;;;;1.33;0.63;;;12.30;75.90;;;;;;5090096;28;20036;-70
2024/02/11 08:23:47;;;;;;;3.58;1.85;;;12.30;75.20;;;;;;5080702;28;20035;-70
2024/02/11 08:26:13;;;;;;;;;;;12.40;75.60;;;;;;5086210;28;20063;-70
2024/02/11 08:28:39;;;;;;;2.80;2.20;;;12.60;75.50;;;;;;5079678;28;19926;-70
2024/02/11 08:31:05;;;;;;;1.00;0.75;;;12.70;74.90;;;;;;5074894;28;20063;-70
2024/02/11 08:33:32;;;;;;;2.75;1.55;;;12.70;74.50;;;;;;5071310;28;20036;-70
2024/02/11 08:35:58;;;;;;;1.13;0.55;;;12.80;74.40;;;;;;5073641;28;20036;-70
2024/02/11 08:38:24;;;;;;;2.45;0.88;;;13.00;74.10;;;;;;5083500;28;20122;-70
2024/02/11 08:40:51;;;;;;;3.97;0.80;;;13.10;73.70;;;;;;5086254;28;20275;-70
2024/02/11 08:43:19;;;;;;;;;;;13.10;73.20;;;;;;5083223;28;20035;-70
2024/02/11 08:45:45;;;;;;;1.48;0.38;;;13.10;73.60;;;;;;5078837;28;19920;-70
2024/02/11 08:48:11;;;;;;;1.15;0.98;;;13.30;73.20;;;;;;5082538;28;20048;-70
2024/02/11 08:50:38;;;;;;;0.93;0.40;;;13.30;72.80;;;;;;5069208;28;20404;-70
2024/02/11 08:53:05;;;;;;;0.47;0.35;;;13.40;72.90;;;;;;5071904;28;20039;-70
2024/02/11 08:55:31;;;;;;;2.33;1.25;;;13.50;72.50;;;;;;5083961;28;20123;-70
2024/02/11 08:57:59;;;;;;;0.60;0.60;;;13.60;71.90;;;;;;5075529;28;20073;-70
2024/02/11 09:00:26;;;;;;;0.22;0.20;;;13.50;71.80;;;;;;5070777;28;20306;-70
2024/02/11 09:02:53;;;;;;;1.10;0.73;;;13.60;71.70;;;;;;5074254;28;20068;-70
2024/02/11 09:05:21;;;;;;;1.50;0.43;;;13.60;71.70;;;;;;5081574;28;20051;-70
2024/02/11 09:07:47;;;;;;;1.75;0.38;;;13.60;71.70;;;;;;5070039;28;20404;-70
2024/02/11 09:10:14;;;;;;;0.63;0.40;;;13.60;71.70;;;;;;5070596;28;20037;-71
2024/02/11 09:12:41;;;;;;;0.55;0.30;;;13.60;71.40;;;;;;5070980;28;20036;-70
2024/02/11 09:15:09;;;;;;;1.20;0.95;;;13.70;71.20;;;;;;5069217;28;20045;-70
2024/02/11 09:17:40;;;;;;;0.30;0.17;;;13.60;70.50;;;;;;5052692;28;20032;-70
2024/02/11 09:20:08;;;;;;;0.43;0.25;;;13.70;72.30;;;;;;5076017;28;20556;-70
2024/02/11 09:22:34;;;;;;;0.75;0.40;;;13.60;70.70;;;;;;5081183;28;20123;-70
2024/02/11 09:25:03;;;;;;;0.80;0.55;;;13.60;71.00;;;;;;5085007;28;20392;-70
2024/02/11 09:27:29;;;;;;;0.98;0.55;;;13.70;70.60;;;;;;5089404;28;20032;-71
2024/02/11 09:29:55;;;;;;;0.28;0.25;;;13.80;70.80;;;;;;5085192;28;20520;-71
2024/02/11 09:32:21;;;;;;;0.40;0.38;;;13.80;70.80;;;;;;5070104;28;20040;-71
2024/02/11 09:34:47;;;;;;;0.32;0.32;;;13.90;70.20;;;;;;5070815;28;20035;-70
2024/02/11 09:37:14;;;;;;;0.35;0.28;;;13.90;70.20;;;;;;5070910;28;20358;-71
2024/02/11 09:39:40;;;;;;;0.20;0.10;;;14.00;70.30;;;;;;5071032;28;20020;-70
2024/02/11 09:42:06;;;;;;;0.75;0.55;;;14.00;70.30;;;;;;5075789;28;20047;-70
2024/02/11 09:44:34;;;;;;;;;;;14.10;69.30;;;;;;5090167;28;20109;-70
2024/02/11 09:47:01;;;;;;;0.10;0.10;;;14.10;69.40;;;;;;5092084;28;19919;-70
2024/02/11 09:49:29;;;;;;;1.27;0.60;;;14.20;69.10;;;;;;5084819;28;20039;-70
2024/02/11 09:51:57;;;;;;;0.47;0.40;;;14.50;68.30;;;;;;5072643;28;20064;-71
2024/02/11 09:54:25;;;;;;;0.95;0.50;;;15.00;66.90;;;;;;5073265;28;20029;-70
2024/02/11 09:56:51;;;;;;;0.20;0.20;;;15.30;65.90;;;;;;5073025;28;20044;-70
2024/02/11 09:59:17;;;;;;;0.30;0.30;;;15.50;65.70;;;;;;5056112;28;20032;-71
2024/02/11 10:01:44;;;;;;;1.00;0.80;;;15.70;65.00;;;;;;5077972;28;20089;-71
2024/02/11 10:04:13;;;;;;;0.28;0.28;;;15.90;63.70;;;;;;5093339;28;20097;-71
2024/02/11 10:07:00;;;;;;;0.30;0.30;;;16.30;62.70;;;;;;5092844;28;20104;-70
2024/02/11 10:09:27;;;;;;;1.98;0.95;;;16.70;61.10;;;;;;5076518;28;20032;-71
2024/02/11 10:11:54;;;;;;;0.43;0.28;;;17.20;59.40;;;;;;5092065;28;20044;-70
2024/02/11 10:14:25;;;;;;;0.73;0.50;;;17.30;57.90;;;;;;5094335;28;20161;-71
2024/02/11 10:16:54;;;;;;;0.25;0.20;;;17.30;57.90;;;;;;5094151;28;20044;-71
2024/02/11 10:19:39;;;;;;;1.20;0.88;;;17.30;58.10;;;;;;5093112;28;20028;-71
2024/02/11 10:22:05;;;;;;;1.25;0.63;;;17.60;57.20;;;;;;5086459;28;20040;-71
2024/02/11 10:24:31;;;;;;;0.73;0.55;;;17.80;56.70;;;;;;5072601;28;20028;-71
2024/02/11 10:26:58;;;;;;;0.73;0.47;;;17.80;56.40;;;;;;5075985;28;20052;-71
2024/02/11 10:29:26;;;;;;;0.98;0.57;;;17.70;56.20;;;;;;5092824;28;20024;-71
2024/02/11 10:31:53;;;;;;;0.65;0.60;;;17.60;56.60;;;;;;5093381;28;20048;-71
2024/02/11 10:34:19;;;;;;;0.63;0.40;;;17.70;56.60;;;;;;5075636;28;20496;-71
2024/02/11 10:36:48;;;;;;;0.55;0.55;;;17.60;56.00;;;;;;5075042;28;20443;-70
2024/02/11 10:39:14;;;;;;;1.42;0.38;;;17.30;56.10;;;;;;5072205;28;20496;-71
2024/02/11 10:41:41;;;;;;;0.55;0.35;;;17.20;56.40;;;;;;5078224;28;20098;-71
2024/02/11 10:44:09;;;;;;;1.45;1.25;;;17.10;57.10;;;;;;5074258;28;20028;-71
2024/02/11 10:46:35;;;;;;;0.40;0.40;;;17.10;56.70;;;;;;5075343;28;20126;-71
2024/02/11 10:49:01;;;;;;;1.80;1.38;;;17.40;56.80;;;;;;5093532;28;20028;-71
2024/02/11 10:51:45;;;;;;;;;;;17.90;55.00;;;;;;5092366;28;20028;-71
2024/02/11 10:54:14;;;;;;;1.00;0.60;;;18.10;54.80;;;;;;5092349;28;19996;-71
2024/02/11 10:56:42;;;;;;;1.45;0.57;;;18.10;54.60;;;;;;5090914;28;20032;-70
2024/02/11 10:59:33;;;;;;;1.25;0.55;;;18.50;53.00;;;;;;5073322;28;20036;-71
2024/02/11 11:02:00;;;;;;;0.30;0.30;;;18.40;52.30;;;;;;5082346;28;20036;-71
2024/02/11 11:04:28;;;;;;;0.60;0.60;;;18.60;53.00;;;;;;5083628;28;20032;-71
2024/02/11 11:06:55;;;;;;;0.20;0.20;;;18.80;51.80;;;;;;5080557;28;20392;-71
2024/02/11 11:09:24;;;;;;;1.02;0.60;;;18.70;51.20;;;;;;5077585;28;20456;-72
2024/02/11 11:11:51;;;;;;;1.63;1.00;;;19.00;50.50;;;;;;5076063;28;20045;-71
2024/02/11 11:14:19;;;;;;;1.80;1.23;;;19.40;49.50;;;;;;5074983;28;20109;-71
2024/02/11 11:16:47;;;;;;;1.27;0.50;;;19.90;49.00;;;;;;5074036;28;20040;-71
2024/02/11 11:19:14;;;;;;;0.47;0.40;;;20.00;47.40;;;;;;5091751;28;20047;-71
2024/02/11 11:22:01;;;;;;;1.90;1.15;;;20.10;48.70;;;;;;5090959;28;20439;-71
2024/02/11 11:24:27;;;;;;;2.55;0.40;;;20.80;46.70;;;;;;5091622;28;20055;-71
2024/02/11 11:26:56;;;;;;;3.35;0.68;;;21.20;45.50;;;;;;5076756;28;20056;-71
2024/02/11 11:29:41;;;;;;;1.60;1.17;;;21.30;44.20;;;;;;5071412;28;20043;-71
2024/02/11 11:32:09;;;;;;;1.05;0.57;;;21.00;45.20;;;;;;5084537;28;20042;-71
2024/02/11 11:34:36;;;;;;;0.20;0.20;;;20.50;45.30;;;;;;5091449;28;20047;-71
2024/02/11 11:37:23;;;;;;;0.10;0.10;;;20.00;45.60;;;;;;5092595;28;20040;-71
2024/02/11 11:39:50;;;;;;;0.52;0.40;;;19.80;47.10;;;;;;5092632;28;20060;-71
2024/02/11 11:42:17;;;;;;;1.75;0.63;;;19.70;48.70;;;;;;5092065;28;20123;-71
2024/02/11 11:44:43;;;;;;;1.42;0.98;;;20.10;48.10;;;;;;5092883;28;20020;-71
2024/02/11 11:47:09;;;;;;;;;;;20.50;46.00;;;;;;5093447;28;20441;-71
2024/02/11 11:49:37;;;;;;;1.42;1.13;;;21.40;44.60;;;;;;5074249;28;19972;-71
2024/02/11 11:52:04;;;;;;;1.15;0.68;;;21.90;43.80;;;;;;5070373;28;20116;-71
2024/02/11 11:54:31;;;;;;;0.52;0.52;;;21.70;43.30;;;;;;5072201;28;20024;-71
2024/02/11 11:56:58;;;;;;;0.52;0.45;;;21.40;43.80;;;;;;5070666;28;20049;-71
2024/02/11 11:59:25;;;;;;;0.60;0.40;;;21.00;44.50;;;;;;5078261;28;20410;-71
2024/02/11 12:02:10;;;;;;;0.30;0.30;;;20.70;45.10;;;;;;5069970;28;20489;-71
2024/02/11 12:04:37;;;;;;;0.40;0.35;;;20.20;46.30;;;;;;5074015;28;20554;-71
2024/02/11 12:07:23;;;;;;;1.23;1.13;;;20.10;47.30;;;;;;5089800;28;20044;-71
2024/02/11 12:09:52;;;;;;;0.38;0.35;;;20.10;46.70;;;;;;5083390;28;20389;-71
2024/02/11 12:12:20;;;;;;;0.57;0.40;;;20.30;46.60;;;;;;5068652;28;20052;-71
2024/02/11 12:14:47;;;;;;;0.43;0.30;;;20.70;45.90;;;;;;5070563;28;20032;-71
2024/02/11 12:17:13;;;;;;;0.45;0.45;;;21.50;43.50;;;;;;5053346;28;20052;-71
2024/02/11 12:20:00;;;;;;;0.30;0.30;;;21.90;42.00;;;;;;5070504;28;20038;-71
2024/02/11 12:22:26;;;;;;;0.57;0.50;;;21.60;43.00;;;;;;5069418;28;20047;-72
2024/02/11 12:24:52;;;;;;;2.17;0.60;;;21.50;43.70;;;;;;5070441;28;20040;-71
2024/02/11 12:27:19;;;;;;;0.47;0.47;;;21.20;43.10;;;;;;5070004;28;20037;-71
2024/02/11 12:30:04;;;;;;;0.55;0.50;;;20.90;45.00;;;;;;5071146;28;20103;-71
2024/02/11 12:32:33;;;;;;;0.30;0.30;;;20.70;44.30;;;;;;5090887;28;20085;-71
2024/02/11 12:34:59;;;;;;;1.00;0.55;;;20.60;45.40;;;;;;5082050;28;20040;-71
2024/02/11 12:37:25;;;;;;;0.63;0.60;;;20.40;45.80;;;;;;5069577;28;20388;-71
2024/02/11 12:39:54;;;;;;;;;;;20.20;45.70;;;;;;5072939;28;20550;-71
2024/02/11 12:42:20;;;;;;;0.30;0.30;;;19.80;46.80;;;;;;5060463;28;19971;-71
2024/02/11 12:44:46;;;;;;;1.42;0.75;;;19.60;47.80;;;;;;5073175;28;20054;-71
2024/02/11 12:47:14;;;;;;;1.42;1.00;;;19.40;48.70;;;;;;5073161;28;20059;-71
2024/02/11 12:49:39;;;;;;;0.60;0.50;;;19.40;49.20;;;;;;5078017;28;20115;-71
2024/02/11 12:52:06;;;;;;;0.40;0.38;;;19.40;49.20;;;;;;5076691;28;20500;-71
2024/02/11 12:54:33;;;;;;;0.75;0.73;;;19.40;49.10;;;;;;5069778;28;20060;-71
2024/02/11 12:56:59;;;;;;;14.55;1.42;;;19.20;48.30;;;;;;5076494;28;20675;-71
2024/02/11 12:59:27;;;;;;;;;;;19.10;49.60;;;;;;5088746;28;20028;-71